Time;durP1;ratioP1;P1;durP2;ratioP2;P2;SDS_P1;SDS_P2;PMS_P1;PMS_P2;Temp;Humidity;BMP_temperature;BMP_pressure;BME280_temperature;BME280_humidity;BME280_pressure;Samples;Min_cycle;Max_cycle;Signal;HPM_P1;HPM_P2
2023/01/05 00:00:03;;;;;;;27.45;4.35;;;;;;;8.98;100.00;100486.19;5041993;28;20106;-81
2023/01/05 00:02:39;;;;;;;33.72;3.45;;;;;;;8.97;100.00;100497.72;5068677;28;20379;-85
2023/01/05 00:05:06;;;;;;;21.52;3.13;;;;;;;8.99;100.00;100493.16;5075848;28;20028;-85
2023/01/05 00:07:32;;;;;;;28.63;4.05;;;;;;;8.97;100.00;100486.31;5031766;28;20403;-81
2023/01/05 00:09:58;;;;;;;31.27;4.40;;;;;;;8.99;100.00;100487.88;5069099;28;20140;-81
2023/01/05 00:23:25;;;;;;;24.38;3.75;;;;;;;8.98;100.00;100501.19;5061930;28;20451;-80
2023/01/05 00:25:51;;;;;;;29.73;3.90;;;;;;;8.96;100.00;100500.47;5035677;28;20131;-81
2023/01/05 00:28:17;;;;;;;19.10;3.83;;;;;;;8.97;100.00;100507.41;5046670;28;20488;-81
2023/01/05 00:30:46;;;;;;;27.23;3.42;;;;;;;8.96;100.00;100503.97;5065430;28;20037;-81
2023/01/05 00:33:16;;;;;;;23.20;3.40;;;;;;;8.98;100.00;100496.75;5035297;28;20043;-81
2023/01/05 00:35:42;;;;;;;27.67;3.35;;;;;;;8.96;100.00;100490.78;5079604;28;20036;-81
2023/01/05 00:38:09;;;;;;;27.23;4.47;;;;;;;8.99;100.00;100501.06;5061083;28;20111;-80
2023/01/05 00:40:38;;;;;;;21.83;3.65;;;;;;;9.01;100.00;100491.22;5064434;28;20035;-81
2023/01/05 00:43:04;;;;;;;20.65;3.25;;;;;;;9.02;100.00;100490.25;5064235;28;20032;-81
2023/01/05 00:45:30;;;;;;;27.77;3.28;;;;;;;9.04;100.00;100492.75;5060197;28;20033;-81
2023/01/05 00:47:56;;;;;;;23.05;3.70;;;;;;;9.05;100.00;100494.41;5048414;28;20036;-81
2023/01/05 00:50:22;;;;;;;35.03;4.25;;;;;;;9.05;100.00;100492.63;5065341;28;20045;-81
2023/01/05 00:52:48;;;;;;;35.58;4.95;;;;;;;9.04;100.00;100488.31;5047877;28;20108;-81
2023/01/05 00:55:14;;;;;;;31.73;5.03;;;;;;;9.06;100.00;100490.81;5058456;28;20051;-81
2023/01/05 00:57:40;;;;;;;33.65;4.60;;;;;;;9.05;100.00;100492.63;5072244;28;20122;-80
2023/01/05 01:00:12;;;;;;;30.10;4.32;;;;;;;9.09;100.00;100489.72;5063389;28;20063;-81
2023/01/05 01:02:38;;;;;;;30.35;4.57;;;;;;;9.06;100.00;100486.38;5060922;28;20035;-81
2023/01/05 01:05:06;;;;;;;24.67;3.25;;;;;;;9.08;100.00;100491.50;5050243;28;20032;-81
2023/01/05 01:07:32;;;;;;;39.17;5.57;;;;;;;9.08;100.00;100488.06;5067321;28;20036;-81
2023/01/05 01:09:58;;;;;;;34.72;5.07;;;;;;;9.09;100.00;100493.19;5062533;28;20162;-81
2023/01/05 01:12:24;;;;;;;31.38;4.72;;;;;;;9.08;100.00;100488.06;5065746;28;20498;-81
2023/01/05 01:14:50;;;;;;;28.75;4.43;;;;;;;9.08;100.00;100488.88;5059664;28;20075;-81
2023/01/05 01:17:16;;;;;;;26.10;4.38;;;;;;;9.10;100.00;100486.09;5067277;28;20032;-81
2023/01/05 01:19:44;;;;;;;32.08;6.22;;;;;;;9.09;100.00;100485.28;5078352;28;20038;-80
2023/01/05 01:22:10;;;;;;;28.70;6.10;;;;;;;9.08;100.00;100488.06;5073869;28;20035;-81
2023/01/05 01:24:36;;;;;;;32.42;4.63;;;;;;;9.06;100.00;100475.81;5027829;28;20389;-81
2023/01/05 01:27:02;;;;;;;28.85;4.45;;;;;;;9.05;100.00;100483.88;5066164;28;20450;-81
2023/01/05 01:29:28;;;;;;;40.45;5.07;;;;;;;9.03;100.00;100483.19;5063735;28;20093;-81
2023/01/05 01:31:54;;;;;;;29.55;6.13;;;;;;;8.98;100.00;100480.91;5045950;28;20029;-81
2023/01/05 01:34:20;;;;;;;43.20;5.03;;;;;;;8.97;100.00;100484.53;5065160;28;20033;-81
2023/01/05 01:36:46;;;;;;;30.70;4.30;;;;;;;8.96;100.00;100484.66;5031338;28;20044;-81
2023/01/05 01:39:13;;;;;;;26.15;4.43;;;;;;;8.95;100.00;100472.47;5063329;28;20510;-81
2023/01/05 01:41:43;;;;;;;33.75;4.38;;;;;;;8.89;100.00;100471.19;5051350;28;20033;-81
2023/01/05 01:44:51;;;;;;;40.05;4.80;;;;;;;8.90;100.00;100478.13;5084601;28;20128;-81
2023/01/05 01:47:30;;;;;;;33.90;5.40;;;;;;;8.84;100.00;100473.41;5085166;28;20380;-82
2023/01/05 01:50:02;;;;;;;30.63;4.90;;;;;;;8.81;100.00;100464.78;5087393;28;20036;-81
2023/01/05 01:52:31;;;;;;;23.05;3.95;;;;;;;8.81;100.00;100472.69;5042829;28;20124;-81
2023/01/05 01:54:57;;;;;;;31.95;4.47;;;;;;;8.79;100.00;100471.16;5067245;28;20032;-81
2023/01/05 01:57:25;;;;;;;31.50;3.85;;;;;;;8.79;100.00;100466.69;5063630;28;20314;-81
2023/01/05 01:59:51;;;;;;;39.50;5.07;;;;;;;8.75;100.00;100473.22;5069824;28;20385;-81
2023/01/05 02:02:20;;;;;;;27.73;3.72;;;;;;;8.73;100.00;100469.06;5069722;28;20054;-81
2023/01/05 02:04:46;;;;;;;24.85;4.90;;;;;;;8.69;100.00;100464.00;5051881;28;20036;-81
2023/01/05 02:07:15;;;;;;;38.20;4.90;;;;;;;8.74;100.00;100461.00;5067390;28;20041;-81
2023/01/05 02:09:41;;;;;;;31.75;4.95;;;;;;;8.71;100.00;100469.19;5049616;28;20059;-82
2023/01/05 02:12:33;;;;;;;26.60;3.97;;;;;;;8.74;100.00;100460.16;5047845;28;20479;-81
2023/01/05 02:15:11;;;;;;;26.08;4.82;;;;;;;8.75;100.00;100465.31;5028713;28;20035;-81
2023/01/05 02:17:52;;;;;;;25.83;4.10;;;;;;;8.76;100.00;100464.31;5036758;28;20460;-81
2023/01/05 02:20:58;;;;;;;29.80;4.43;;;;;;;8.77;100.00;100463.38;5034367;28;20032;-81
2023/01/05 02:23:32;;;;;;;25.45;4.88;;;;;;;8.76;100.00;100461.69;5071156;28;20040;-81
2023/01/05 02:26:21;;;;;;;24.80;4.63;;;;;;;8.78;100.00;100461.56;5051325;28;20028;-81
2023/01/05 02:29:27;;;;;;;27.90;4.40;;;;;;;8.79;100.00;100463.25;5068532;28;20040;-81
2023/01/05 02:32:21;;;;;;;31.05;5.05;;;;;;;8.78;100.00;100461.56;5063796;28;20419;-81
2023/01/05 02:34:56;;;;;;;32.30;4.60;;;;;;;8.75;100.00;100464.47;5084733;28;20035;-81
2023/01/05 02:37:36;;;;;;;31.25;4.47;;;;;;;8.75;100.00;100454.75;5050901;28;20059;-81
2023/01/05 02:40:09;;;;;;;31.83;4.22;;;;;;;8.73;100.00;100453.25;5062914;28;20071;-80
2023/01/05 02:42:39;;;;;;;27.95;4.15;;;;;;;8.69;100.00;100452.66;5053610;28;20499;-81
2023/01/05 02:45:07;;;;;;;35.10;4.68;;;;;;;8.66;100.00;100458.19;5064228;28;20041;-81
2023/01/05 02:47:43;;;;;;;27.27;4.07;;;;;;;8.66;100.00;100459.00;5071856;28;20499;-81
2023/01/05 02:50:25;;;;;;;34.92;4.63;;;;;;;8.63;100.00;100454.00;5051641;28;20118;-81
2023/01/05 02:53:20;;;;;;;30.38;4.32;;;;;;;8.62;100.00;100446.22;5068922;28;20055;-80
2023/01/05 02:55:54;;;;;;;42.70;4.95;;;;;;;8.59;100.00;100449.13;5084648;28;20033;-81
2023/01/05 02:58:35;;;;;;;32.08;4.90;;;;;;;8.58;100.00;100442.19;5053629;28;20029;-80
2023/01/05 03:01:10;;;;;;;30.83;4.88;;;;;;;8.58;100.00;100436.94;5070075;28;20039;-81
2023/01/05 03:03:46;;;;;;;32.15;4.78;;;;;;;8.59;100.00;100430.69;5049767;28;21733;-81
2023/01/05 03:06:29;;;;;;;37.97;5.43;;;;;;;8.59;100.00;100433.31;5071303;28;20064;-81
2023/01/05 03:09:01;;;;;;;34.20;4.43;;;;;;;8.60;100.00;100419.19;5054398;28;20060;-81
2023/01/05 03:14:47;;;;;;;34.67;4.32;;;;;;;8.59;100.00;100402.53;5064557;28;20051;-81
2023/01/05 03:17:19;;;;;;;32.70;4.53;;;;;;;8.58;100.00;100400.03;5053162;28;20024;-81
2023/01/05 03:19:49;;;;;;;40.55;4.80;;;;;;;8.57;100.00;100407.09;5053398;28;20043;-81
2023/01/05 03:37:14;;;;;;;48.13;4.88;;;;;;;8.58;100.00;100377.19;5065656;28;20041;-81
2023/01/05 03:39:42;;;;;;;41.92;4.78;;;;;;;8.60;100.00;100371.78;5032956;28;20122;-81
2023/01/05 03:42:10;;;;;;;33.80;4.63;;;;;;;8.60;100.00;100359.41;5035885;28;20503;-80
2023/01/05 03:44:44;;;;;;;35.38;4.53;;;;;;;8.62;100.00;100357.50;5053657;28;20097;-81
2023/01/05 03:47:13;;;;;;;35.53;4.55;;;;;;;8.58;100.00;100350.84;5002634;28;20090;-81
2023/01/05 03:49:40;;;;;;;30.75;3.78;;;;;;;8.57;100.00;100346.50;5033425;28;20039;-81
2023/01/05 03:52:07;;;;;;;37.47;6.40;;;;;;;8.59;100.00;100346.38;5067690;28;20040;-84
2023/01/05 03:54:33;;;;;;;39.28;5.25;;;;;;;8.60;100.00;100343.59;5071026;28;20032;-85
2023/01/05 03:56:59;;;;;;;32.92;4.43;;;;;;;8.61;100.00;100339.19;5070958;28;20408;-81
2023/01/05 03:59:26;;;;;;;32.97;4.45;;;;;;;8.62;100.00;100331.16;5057998;28;20105;-80
2023/01/05 04:01:52;;;;;;;41.10;4.93;;;;;;;8.61;100.00;100334.75;5071444;28;20076;-81
2023/01/05 04:04:18;;;;;;;42.45;4.60;;;;;;;8.63;100.00;100326.72;5069562;28;20028;-80
2023/01/05 04:06:44;;;;;;;33.53;4.68;;;;;;;8.64;100.00;100320.47;5054023;28;20039;-80
2023/01/05 04:09:12;;;;;;;30.35;5.05;;;;;;;8.67;100.00;100320.19;5058211;28;20032;-81
2023/01/05 04:11:40;;;;;;;34.45;4.32;;;;;;;8.66;100.00;100314.09;5053163;28;20118;-81
2023/01/05 04:14:07;;;;;;;31.70;4.25;;;;;;;8.68;100.00;100308.69;5048181;28;20021;-80
2023/01/05 04:16:36;;;;;;;32.80;4.53;;;;;;;8.71;100.00;100312.88;5064998;28;20123;-81
2023/01/05 04:19:11;;;;;;;41.83;4.72;;;;;;;8.72;100.00;100307.47;5066891;28;20115;-80
2023/01/05 04:21:37;;;;;;;28.80;4.28;;;;;;;8.71;100.00;100305.81;5067012;28;20033;-81
2023/01/05 04:24:04;;;;;;;37.15;4.85;;;;;;;8.75;100.00;100309.81;5033720;28;20040;-81
2023/01/05 04:26:32;;;;;;;29.20;4.07;;;;;;;8.77;100.00;100305.25;5033592;28;20047;-81
2023/01/05 04:28:58;;;;;;;43.35;4.97;;;;;;;8.78;100.00;100306.91;5068329;28;20036;-81
2023/01/05 04:31:24;;;;;;;39.13;3.40;;;;;;;8.84;100.00;100286.25;5068262;28;20040;-81
2023/01/05 04:33:52;;;;;;;29.48;3.53;;;;;;;8.87;100.00;100291.25;5051762;28;20024;-85
2023/01/05 04:36:22;;;;;;;29.27;3.67;;;;;;;8.87;100.00;100291.25;5051290;28;20131;-85
2023/01/05 04:38:48;;;;;;;29.50;4.10;;;;;;;8.88;100.00;100290.28;5051768;28;20036;-81
2023/01/05 04:41:14;;;;;;;21.52;3.22;;;;;;;8.91;100.00;100285.56;5048671;28;20127;-81
2023/01/05 04:43:44;;;;;;;21.83;3.13;;;;;;;8.89;100.00;100270.84;5069708;28;20028;-81
2023/01/05 04:46:13;;;;;;;22.92;3.15;;;;;;;8.88;100.00;100277.94;5065009;28;20039;-81
2023/01/05 04:48:38;;;;;;;20.75;2.85;;;;;;;8.86;100.00;100266.69;5068719;28;20494;-81
2023/01/05 04:51:04;;;;;;;17.25;2.90;;;;;;;8.88;100.00;100267.41;5045413;28;20060;-81
2023/01/05 04:53:33;;;;;;;16.98;2.45;;;;;;;8.90;100.00;100267.25;5066870;28;20485;-81
2023/01/05 04:56:00;;;;;;;12.52;2.28;;;;;;;8.91;100.00;100261.00;5051677;28;20036;-81
2023/01/05 04:58:31;;;;;;;13.57;2.85;;;;;;;8.93;100.00;100257.25;5049589;28;20091;-85
2023/01/05 05:00:58;;;;;;;14.80;2.70;;;;;;;8.95;100.00;100251.84;5046319;28;20088;-85
2023/01/05 05:03:25;;;;;;;10.20;2.05;;;;;;;8.98;100.00;100254.19;5049568;28;20028;-81
2023/01/05 05:05:51;;;;;;;15.57;2.20;;;;;;;9.00;100.00;100244.34;5051181;28;20109;-81
2023/01/05 05:08:18;;;;;;;15.20;3.05;;;;;;;9.01;100.00;100245.19;5051093;28;20029;-81
2023/01/05 05:10:44;;;;;;;14.38;1.80;;;;;;;9.01;100.00;100238.13;5066987;28;20522;-81
2023/01/05 05:13:10;;;;;;;14.40;2.30;;;;;;;9.01;100.00;100232.88;5067505;28;20086;-85
2023/01/05 05:15:37;;;;;;;11.57;1.90;;;;;;;9.04;100.00;100232.56;5044758;28;20450;-85
2023/01/05 05:18:04;;;;;;;14.00;2.40;;;;;;;9.06;100.00;100238.53;5074937;28;20043;-81
2023/01/05 05:20:31;;;;;;;14.40;2.25;;;;;;;9.07;100.00;100236.72;5048825;28;20040;-81
2023/01/05 05:22:57;;;;;;;12.13;1.88;;;;;;;9.10;100.00;100236.44;5065821;28;20048;-81
2023/01/05 05:25:23;;;;;;;12.32;1.83;;;;;;;9.11;100.00;100230.19;5050402;28;20060;-81
2023/01/05 05:27:49;;;;;;;15.18;1.75;;;;;;;9.12;100.00;100215.22;5083643;28;20028;-81
2023/01/05 05:30:15;;;;;;;11.45;1.65;;;;;;;9.13;100.00;100219.50;5048413;28;20036;-80
2023/01/05 05:32:41;;;;;;;7.57;1.15;;;;;;;9.14;100.00;100221.19;5047769;28;20021;-80
2023/01/05 05:35:07;;;;;;;8.77;1.40;;;;;;;9.15;100.00;100226.31;5061142;28;20028;-80
2023/01/05 05:37:33;;;;;;;12.45;2.33;;;;;;;9.18;100.00;100219.94;5066982;28;20032;-80
2023/01/05 05:39:59;;;;;;;7.57;1.40;;;;;;;9.22;100.00;100223.13;5034189;28;20485;-81
2023/01/05 05:42:25;;;;;;;10.80;1.45;;;;;;;9.23;100.00;100222.97;5065476;28;20078;-80
2023/01/05 05:44:52;;;;;;;11.60;1.30;;;;;;;9.25;100.00;100223.66;5065616;28;20568;-80
2023/01/05 05:47:20;;;;;;;12.18;1.67;;;;;;;9.28;100.00;100217.28;5065789;28;20066;-80
2023/01/05 05:49:46;;;;;;;7.65;1.63;;;;;;;9.29;100.00;100213.66;5051523;28;20110;-81
2023/01/05 05:52:11;;;;;;;8.18;1.38;;;;;;;9.28;100.00;100218.13;5066247;28;20032;-80
2023/01/05 05:54:37;;;;;;;8.55;1.35;;;;;;;9.30;100.00;100207.44;5035185;28;20040;-80
2023/01/05 05:57:03;;;;;;;6.93;1.00;;;;;;;9.30;100.00;100205.59;5065899;28;20107;-80
2023/01/05 05:59:29;;;;;;;9.27;1.25;;;;;;;9.32;100.00;100205.47;5050354;28;20036;-82
2023/01/05 06:01:55;;;;;;;6.45;1.23;;;;;;;9.30;100.00;100196.88;5050631;28;20070;-82
2023/01/05 06:04:21;;;;;;;8.25;1.00;;;;;;;9.28;100.00;100189.13;5047136;28;20052;-82
2023/01/05 06:06:47;;;;;;;6.07;1.30;;;;;;;9.31;100.00;100187.97;5034875;28;20048;-82
2023/01/05 06:09:13;;;;;;;10.38;1.20;;;;;;;9.30;100.00;100189.78;5046016;28;20492;-82
2023/01/05 06:11:39;;;;;;;7.13;1.17;;;;;;;9.28;100.00;100190.91;5067409;28;20032;-83
2023/01/05 06:14:09;;;;;;;7.55;1.30;;;;;;;9.30;100.00;100200.31;5052034;28;20040;-83
2023/01/05 06:16:35;;;;;;;3.60;1.10;;;;;;;9.30;100.00;100196.88;5051517;28;20590;-82
2023/01/05 06:19:01;;;;;;;8.50;1.23;;;;;;;9.25;100.00;100193.81;5033880;28;20044;-82
2023/01/05 06:21:27;;;;;;;9.90;1.15;;;;;;;9.26;100.00;100183.13;5069550;28;20028;-83
2023/01/05 06:23:52;;;;;;;11.07;1.20;;;;;;;9.24;100.00;100185.06;5054504;28;20036;-82
2023/01/05 06:26:19;;;;;;;6.85;0.93;;;;;;;9.23;100.00;100183.41;5069693;28;20107;-82
2023/01/05 06:28:46;;;;;;;6.97;1.30;;;;;;;9.24;100.00;100176.31;5068094;28;20068;-82
2023/01/05 06:31:12;;;;;;;9.60;1.38;;;;;;;9.21;100.00;100182.72;5052688;28;20039;-82
2023/01/05 06:33:37;;;;;;;12.35;1.52;;;;;;;9.22;100.00;100186.19;5089199;28;20089;-82
2023/01/05 06:36:03;;;;;;;6.65;1.10;;;;;;;9.22;100.00;100180.94;5068162;28;20079;-80
2023/01/05 06:38:29;;;;;;;4.95;1.00;;;;;;;9.21;100.00;100176.59;5063596;28;20052;-81
2023/01/05 06:40:56;;;;;;;9.70;1.55;;;;;;;9.21;100.00;100172.19;5038328;28;20032;-82
2023/01/05 06:43:23;;;;;;;5.28;1.20;;;;;;;9.21;100.00;100174.81;5055810;28;20488;-82
2023/01/05 06:45:49;;;;;;;8.25;1.40;;;;;;;9.24;100.00;100171.03;5071624;28;20028;-83
2023/01/05 06:48:15;;;;;;;8.65;1.00;;;;;;;9.25;100.00;100170.91;5071342;28;20033;-83
2023/01/05 06:50:40;;;;;;;11.27;1.83;;;;;;;9.27;100.00;100171.59;5072894;28;20036;-82
2023/01/05 06:53:07;;;;;;;7.25;1.00;;;;;;;9.27;100.00;100160.25;5070370;28;20036;-82
2023/01/05 06:55:36;;;;;;;7.47;1.42;;;;;;;9.28;100.00;100151.34;5051092;28;20060;-82
2023/01/05 06:58:05;;;;;;;11.88;1.60;;;;;;;9.30;100.00;100141.50;5071459;28;20040;-82
2023/01/05 07:00:31;;;;;;;15.48;1.88;;;;;;;9.29;100.00;100145.94;5068713;28;20538;-81
2023/01/05 07:02:58;;;;;;;15.73;1.60;;;;;;;9.32;100.00;100144.78;5053708;28;20555;-82
2023/01/05 07:05:24;;;;;;;17.70;2.47;;;;;;;9.33;100.00;100135.09;5037000;28;20047;-82
2023/01/05 07:07:50;;;;;;;12.68;2.10;;;;;;;9.35;100.00;100120.78;5071406;28;20109;-82
2023/01/05 07:10:16;;;;;;;18.70;2.03;;;;;;;9.37;100.00;100118.81;5069842;28;20135;-82
2023/01/05 07:12:41;;;;;;;17.70;2.40;;;;;;;9.38;100.00;100120.47;5036627;28;20029;-82
2023/01/05 07:15:09;;;;;;;19.92;2.55;;;;;;;9.38;100.00;100132.84;5079232;28;20052;-82
2023/01/05 07:17:35;;;;;;;17.33;1.88;;;;;;;9.38;100.00;100131.03;5055042;28;20032;-83
2023/01/05 07:20:04;;;;;;;16.25;2.10;;;;;;;9.42;100.00;100132.44;5052926;28;20474;-82
2023/01/05 07:22:29;;;;;;;22.20;2.92;;;;;;;9.45;100.00;100125.19;5046349;28;20033;-83
2023/01/05 07:24:57;;;;;;;16.92;2.75;;;;;;;9.47;100.00;100120.59;5071154;28;20043;-82
2023/01/05 07:27:24;;;;;;;22.98;2.80;;;;;;;9.50;100.00;100121.16;5052604;28;20048;-83
2023/01/05 07:29:49;;;;;;;14.50;2.30;;;;;;;9.52;100.00;100108.63;5074690;28;20101;-82
2023/01/05 07:32:15;;;;;;;24.02;3.13;;;;;;;9.55;100.00;100116.28;5027954;28;20029;-82
2023/01/05 07:34:41;;;;;;;16.42;2.58;;;;;;;9.59;100.00;100115.97;5069436;28;20085;-83
2023/01/05 07:37:07;;;;;;;19.35;2.20;;;;;;;9.63;100.00;100122.63;5048789;28;20029;-83
2023/01/05 07:39:32;;;;;;;27.58;2.80;;;;;;;9.63;100.00;100117.34;5064992;28;20070;-83
2023/01/05 07:41:58;;;;;;;14.82;2.38;;;;;;;9.68;100.00;100115.91;5070018;28;20044;-83
2023/01/05 07:44:25;;;;;;;19.50;3.95;;;;;;;9.68;100.00;100117.75;5069883;28;20186;-83
2023/01/05 07:46:52;;;;;;;19.35;2.40;;;;;;;9.69;100.00;100122.03;5031192;28;20388;-83
2023/01/05 07:49:18;;;;;;;17.75;2.38;;;;;;;9.71;100.00;100116.59;5055421;28;20098;-83
2023/01/05 07:51:43;;;;;;;22.10;2.47;;;;;;;9.72;100.00;100119.09;5059570;28;20036;-82
2023/01/05 07:54:09;;;;;;;16.90;2.53;;;;;;;9.73;100.00;100107.53;5063246;28;20032;-82
2023/01/05 07:56:35;;;;;;;23.52;2.95;;;;;;;9.75;100.00;100110.03;5031028;28;21094;-82
2023/01/05 07:59:01;;;;;;;14.25;2.08;;;;;;;9.78;100.00;100101.81;5064336;28;20041;-82
2023/01/05 08:01:27;;;;;;;23.27;3.38;;;;;;;9.76;100.00;100106.44;5050686;28;20036;-82
2023/01/05 08:03:53;;;;;;;25.80;3.47;;;;;;;9.76;100.00;100103.81;5067725;28;20511;-83
2023/01/05 08:06:19;;;;;;;20.88;3.17;;;;;;;9.79;100.00;100104.31;5069004;28;20050;-83
2023/01/05 08:08:46;;;;;;;24.73;3.22;;;;;;;9.80;100.00;100091.97;5051989;28;20051;-83
2023/01/05 08:11:14;;;;;;;27.65;3.20;;;;;;;9.84;100.00;100098.63;5065845;28;20056;-82
2023/01/05 08:14:01;;;;;;;21.67;3.80;;;;;;;9.86;100.00;100106.38;5069058;28;20132;-82
2023/01/05 08:16:31;;;;;;;23.70;4.57;;;;;;;9.89;100.00;100106.09;5064070;28;20036;-83
2023/01/05 08:18:58;;;;;;;23.38;3.53;;;;;;;9.89;100.00;100091.06;5067296;28;20024;-82
2023/01/05 08:21:24;;;;;;;30.20;4.13;;;;;;;9.89;100.00;100096.34;5064399;28;20040;-82
2023/01/05 08:23:52;;;;;;;29.27;3.92;;;;;;;9.92;100.00;100089.97;5083130;28;20032;-82
2023/01/05 08:26:21;;;;;;;25.80;3.70;;;;;;;9.96;100.00;100083.38;5062164;28;20079;-83
2023/01/05 08:28:47;;;;;;;23.40;3.33;;;;;;;9.95;100.00;100079.09;5060321;28;20043;-82
2023/01/05 08:31:25;;;;;;;19.90;2.70;;;;;;;9.97;100.00;100082.41;5050511;28;20024;-82
2023/01/05 08:33:56;;;;;;;31.05;3.25;;;;;;;9.97;100.00;100073.66;5057582;28;20127;-82
2023/01/05 08:36:23;;;;;;;26.95;3.03;;;;;;;9.93;100.00;100068.69;5050468;28;20437;-82
2023/01/05 08:38:53;;;;;;;36.15;3.70;;;;;;;9.93;100.00;100073.13;5058507;28;20028;-81
2023/01/05 08:41:22;;;;;;;22.67;2.78;;;;;;;9.89;100.00;100074.41;5075316;28;20025;-82
2023/01/05 08:43:52;;;;;;;22.77;2.65;;;;;;;9.88;100.00;100056.91;5063195;28;20028;-82
2023/01/05 08:46:21;;;;;;;19.77;3.67;;;;;;;9.84;100.00;100048.47;5060824;28;20473;-83
2023/01/05 08:48:53;;;;;;;22.90;3.17;;;;;;;9.80;100.00;100033.88;5082425;28;20052;-82
2023/01/05 08:51:19;;;;;;;24.70;2.70;;;;;;;9.75;100.00;100023.78;5067828;28;20208;-82
2023/01/05 08:53:45;;;;;;;27.02;3.58;;;;;;;9.73;100.00;100028.38;5052015;28;20135;-82
2023/01/05 08:56:11;;;;;;;21.92;3.10;;;;;;;9.74;100.00;100023.94;5062638;28;20039;-82
2023/01/05 08:58:38;;;;;;;32.38;3.92;;;;;;;9.73;100.00;100022.28;5067971;28;20112;-81
2023/01/05 09:01:12;;;;;;;21.88;2.90;;;;;;;9.74;100.00;100027.41;5081014;28;20040;-82
2023/01/05 09:03:38;;;;;;;27.38;3.25;;;;;;;9.72;100.00;100016.16;5065291;28;20505;-82
2023/01/05 09:06:05;;;;;;;26.42;2.83;;;;;;;9.72;100.00;100016.16;5068118;28;20038;-81
2023/01/05 09:08:33;;;;;;;22.20;2.40;;;;;;;9.72;100.00;100008.25;5007686;28;20033;-84
2023/01/05 09:11:28;;;;;;;24.05;3.53;;;;;;;9.76;100.00;100019.34;5069098;28;20045;-82
2023/01/05 09:13:56;;;;;;;16.33;2.40;;;;;;;9.78;100.00;100012.94;5043057;28;20155;-82
2023/01/05 09:16:26;;;;;;;21.48;2.80;;;;;;;9.80;100.00;100010.97;5050245;28;20404;-82
2023/01/05 09:18:52;;;;;;;22.80;4.18;;;;;;;9.84;100.00;100013.31;5068673;28;20040;-82
2023/01/05 09:21:18;;;;;;;26.48;2.63;;;;;;;9.87;100.00;100013.00;5067965;28;20082;-82
2023/01/05 09:23:45;;;;;;;18.15;2.55;;;;;;;9.87;100.00;99991.88;5061471;28;20396;-82
2023/01/05 09:26:12;;;;;;;15.05;2.85;;;;;;;9.86;100.00;99971.75;5067421;28;20081;-81
2023/01/05 09:28:38;;;;;;;23.35;2.70;;;;;;;9.84;100.00;99971.91;5067847;28;20490;-82
2023/01/05 09:31:20;;;;;;;13.57;2.45;;;;;;;9.89;100.00;99968.81;5067848;28;20062;-82
2023/01/05 09:33:45;;;;;;;21.67;3.35;;;;;;;9.88;100.00;99962.69;5081451;28;20036;-82
2023/01/05 09:36:13;;;;;;;16.70;2.53;;;;;;;9.88;100.00;99949.50;5064352;28;20538;-82
2023/01/05 09:38:39;;;;;;;12.35;2.10;;;;;;;9.87;100.00;99949.66;5066794;28;20116;-82
2023/01/05 09:41:27;;;;;;;13.23;2.42;;;;;;;9.89;100.00;99940.59;5047083;28;20115;-81
2023/01/05 09:43:59;;;;;;;13.23;2.20;;;;;;;9.90;100.00;99937.00;5036012;28;20056;-83
2023/01/05 09:46:39;;;;;;;18.23;2.03;;;;;;;9.92;100.00;99948.22;5068782;28;20040;-81
2023/01/05 09:49:13;;;;;;;17.15;2.25;;;;;;;9.92;100.00;99950.03;5065750;28;20515;-81
2023/01/05 09:51:40;;;;;;;19.42;2.85;;;;;;;9.91;100.00;99948.34;5050792;28;20036;-81
2023/01/05 09:54:09;;;;;;;23.40;2.47;;;;;;;9.95;100.00;99944.44;5069400;28;20032;-81
2023/01/05 09:56:40;;;;;;;21.13;3.38;;;;;;;9.97;100.00;99944.31;5069421;28;20044;-81
2023/01/05 09:59:13;;;;;;;22.30;2.70;;;;;;;10.00;100.00;99936.88;5055093;28;20032;-81
2023/01/05 10:01:39;;;;;;;17.48;3.10;;;;;;;10.00;100.00;99928.97;5089399;28;20028;-81
2023/01/05 10:04:13;;;;;;;23.48;2.75;;;;;;;10.04;100.00;99932.13;5073013;28;20028;-82
2023/01/05 10:06:57;;;;;;;15.45;2.42;;;;;;;10.07;100.00;99938.91;5070468;28;20463;-81
2023/01/05 10:09:28;;;;;;;14.35;2.08;;;;;;;10.11;100.00;99946.41;5056129;28;20034;-83
2023/01/05 10:15:06;;;;;;;22.23;3.05;;;;;;;10.19;100.00;99935.06;5087017;28;20055;-81
2023/01/05 10:17:38;;;;;;;16.17;2.25;;;;;;;10.23;100.00;99928.47;5051220;28;20803;-81
2023/01/05 10:20:13;;;;;;;17.77;1.77;;;;;;;10.25;100.00;99926.50;5068282;28;20484;-81
2023/01/05 10:23:20;;;;;;;15.50;2.78;;;;;;;10.32;100.00;99925.88;5073234;28;20067;-82
2023/01/05 10:26:12;;;;;;;10.73;1.80;;;;;;;10.36;100.00;99935.16;5026405;28;20385;-81
2023/01/05 10:28:49;;;;;;;14.05;2.15;;;;;;;10.39;100.00;99934.84;5044042;28;20037;-81
2023/01/05 10:31:20;;;;;;;16.02;2.20;;;;;;;10.41;100.00;99925.78;5074410;28;20400;-82
2023/01/05 10:33:51;;;;;;;18.25;2.45;;;;;;;10.43;100.00;99925.63;5069854;28;20068;-82
2023/01/05 10:36:55;;;;;;;10.95;1.95;;;;;;;10.48;100.00;99923.38;5051113;28;20025;-82
2023/01/05 10:39:39;;;;;;;15.85;1.90;;;;;;;10.50;100.00;99924.03;5032271;28;20405;-81
2023/01/05 10:42:20;;;;;;;14.95;2.03;;;;;;;10.55;100.00;99920.94;5072156;28;20024;-81
2023/01/05 10:44:58;;;;;;;24.48;2.83;;;;;;;10.60;100.00;99925.75;5065291;28;20399;-82
2023/01/05 10:47:26;;;;;;;13.32;2.22;;;;;;;10.62;100.00;99934.34;5079132;28;20052;-82
2023/01/05 10:49:52;;;;;;;16.08;2.45;;;;;;;10.62;100.00;99921.94;5063950;28;20074;-81
2023/01/05 10:52:21;;;;;;;15.25;1.83;;;;;;;10.69;100.00;99916.06;5069625;28;20037;-82
2023/01/05 10:54:57;;;;;;;17.05;3.65;;;;;;;10.76;100.00;99896.75;5037208;28;20125;-81
2023/01/05 10:57:32;;;;;;;18.23;2.42;;;;;;;10.81;100.00;99911.31;5067483;28;20028;-82
2023/01/05 11:00:09;;;;;;;16.42;2.47;;;;;;;10.84;100.00;99895.97;5064846;28;20370;-82
2023/01/05 11:02:38;;;;;;;16.00;2.53;;;;;;;10.84;100.00;99889.81;5053537;28;20684;-81
2023/01/05 11:05:09;;;;;;;12.93;2.03;;;;;;;10.86;100.00;99874.66;5054343;28;20388;-81
2023/01/05 11:07:50;;;;;;;13.30;2.42;;;;;;;10.88;100.00;99860.25;5064245;28;20067;-81
2023/01/05 11:10:22;;;;;;;13.73;1.70;;;;;;;10.89;100.00;99840.75;5062501;28;20060;-80
2023/01/05 11:13:15;;;;;;;7.93;1.85;;;;;;;10.90;100.00;99839.78;5063432;28;20051;-81
2023/01/05 11:15:49;;;;;;;17.65;2.40;;;;;;;10.93;100.00;99833.34;5032964;28;20056;-81
2023/01/05 11:18:25;;;;;;;13.88;2.22;;;;;;;10.91;100.00;99825.56;5085804;28;20059;-81
2023/01/05 11:21:23;;;;;;;15.85;3.17;;;;;;;10.97;100.00;99818.81;5067486;28;20063;-81
2023/01/05 11:23:54;;;;;;;19.27;3.20;;;;;;;11.00;100.00;99815.84;5032166;28;20064;-81
2023/01/05 11:26:24;;;;;;;19.52;3.80;;;;;;;11.00;100.00;99797.34;5045724;28;20041;-80
2023/01/05 11:29:08;;;;;;;16.88;3.40;;;;;;;10.99;100.00;99789.56;5062702;28;20037;-81
2023/01/05 11:31:51;;;;;;;27.17;7.38;;;;;;;11.01;100.00;99785.75;5062917;28;20048;-81
2023/01/05 11:34:42;;;;;;;26.13;5.53;;;;;;;11.04;100.00;99764.28;5079375;28;20507;-80
2023/01/05 11:37:11;;;;;;;17.75;3.75;;;;;;;11.03;100.00;99772.38;5062508;28;20452;-81
2023/01/05 11:39:46;;;;;;;26.70;4.10;;;;;;;11.02;100.00;99770.72;5064938;28;20388;-81
2023/01/05 11:42:24;;;;;;;19.92;4.70;;;;;;;11.01;100.00;99764.59;5063702;28;20047;-81
2023/01/05 11:44:54;;;;;;;14.77;2.95;;;;;;;11.02;100.00;99773.38;5063838;28;20563;-81
2023/01/05 11:47:25;;;;;;;26.48;4.20;;;;;;;11.02;100.00;99771.53;5063540;28;20033;-81
2023/01/05 11:50:08;;;;;;;23.30;3.45;;;;;;;11.08;100.00;99753.38;5049018;28;20587;-81
2023/01/05 11:52:43;;;;;;;21.63;3.47;;;;;;;11.09;100.00;99744.44;5051409;28;20032;-81
2023/01/05 11:55:36;;;;;;;20.58;3.80;;;;;;;11.15;100.00;99738.47;5064516;28;20563;-81
2023/01/05 11:58:24;;;;;;;18.63;4.43;;;;;;;11.17;100.00;99733.88;5063162;28;20032;-80
2023/01/05 12:01:27;;;;;;;14.77;2.60;;;;;;;11.20;100.00;99722.94;5066241;28;20056;-81
2023/01/05 12:04:05;;;;;;;25.50;5.10;;;;;;;11.22;100.00;99723.63;5066269;28;20029;-80
2023/01/05 12:06:39;;;;;;;14.95;3.20;;;;;;;11.16;100.00;99719.00;5081735;28;20047;-82